createdAt,value
2023-01-02T00:02:02.428Z,11.75
2023-01-02T00:07:24.248Z,11.77
2023-01-02T00:12:46.103Z,11.84
2023-01-02T00:18:07.993Z,11.91
2023-01-02T00:23:30.333Z,11.85
2023-01-02T00:28:52.219Z,11.89
2023-01-02T00:34:14.289Z,11.84
2023-01-02T00:39:36.148Z,11.86
2023-01-02T00:44:57.996Z,11.93
2023-01-02T00:50:20.283Z,11.88
2023-01-02T00:55:44.395Z,11.90
2023-01-02T01:01:06.323Z,11.92
2023-01-02T01:06:28.283Z,11.91
2023-01-02T01:11:50.147Z,11.96
2023-01-02T01:17:11.989Z,11.92
2023-01-02T01:22:33.918Z,11.96
2023-01-02T01:27:55.762Z,11.95
2023-01-02T01:33:17.604Z,11.88
2023-01-02T01:38:39.658Z,11.93
2023-01-02T01:44:01.657Z,11.94
2023-01-02T01:49:29.432Z,11.99
2023-01-02T01:54:58.782Z,12.04
2023-01-02T02:00:21.122Z,12.01
2023-01-02T02:05:44.108Z,11.93
2023-01-02T02:11:06.381Z,11.76
2023-01-02T02:16:51.679Z,11.81
2023-01-02T02:22:44.641Z,11.67
2023-01-02T02:28:25.487Z,11.72
2023-01-02T02:33:58.928Z,11.70
2023-01-02T02:39:34.773Z,11.70
2023-01-02T02:45:00.553Z,11.61
2023-01-02T02:50:57.673Z,11.54
2023-01-02T02:56:23.135Z,11.46
2023-01-02T03:01:45.146Z,11.45
2023-01-02T03:07:16.153Z,11.38
2023-01-02T03:12:53.228Z,11.37
2023-01-02T03:18:52.497Z,11.28
2023-01-02T03:24:19.443Z,11.13
2023-01-02T03:29:47.401Z,11.18
2023-01-02T03:35:14.330Z,11.06
2023-01-02T03:40:42.996Z,10.94
2023-01-02T03:46:13.493Z,10.75
2023-01-02T03:51:35.551Z,10.82
2023-01-02T03:57:50.819Z,10.82
2023-01-02T04:03:23.242Z,10.71
2023-01-02T04:08:51.972Z,10.70
2023-01-02T04:14:20.129Z,10.57
2023-01-02T04:19:50.743Z,10.66
2023-01-02T04:25:15.873Z,10.75
2023-01-02T04:30:42.875Z,10.78
2023-01-02T04:36:13.287Z,10.76
2023-01-02T04:41:36.854Z,10.67
2023-01-02T04:46:58.704Z,10.65
2023-01-02T04:52:20.620Z,10.57
2023-01-02T04:57:42.498Z,10.44
2023-01-02T05:03:05.101Z,10.24
2023-01-02T05:08:29.130Z,10.14
2023-01-02T05:13:50.977Z,9.99
2023-01-02T05:19:13.073Z,10.05
2023-01-02T05:24:34.932Z,9.93
2023-01-02T05:29:56.911Z,9.79
2023-01-02T05:35:18.852Z,9.72
2023-01-02T05:40:40.968Z,9.67
2023-01-02T05:46:11.231Z,9.72
2023-01-02T05:51:33.818Z,9.57
2023-01-02T05:56:56.566Z,9.56
2023-01-02T06:02:18.470Z,9.43
2023-01-02T06:07:40.341Z,9.27
2023-01-02T06:13:02.227Z,9.18
2023-01-02T06:18:24.216Z,9.13
2023-01-02T06:23:46.843Z,9.02
2023-01-02T06:29:08.977Z,8.95
2023-01-02T06:34:30.852Z,8.87
2023-01-02T06:39:52.792Z,8.81
2023-01-02T06:45:14.743Z,8.66
2023-01-02T06:50:37.026Z,8.69
2023-01-02T06:55:59.113Z,8.54
2023-01-02T07:01:23.137Z,8.57
2023-01-02T07:06:45.039Z,8.82
2023-01-02T07:12:06.925Z,8.91
2023-01-02T07:17:28.871Z,8.99
2023-01-02T07:22:51.788Z,9.27
2023-01-02T07:28:13.714Z,9.49
2023-01-02T07:33:35.847Z,9.97
2023-01-02T07:38:57.718Z,10.19
2023-01-02T07:44:19.567Z,9.94
2023-01-02T07:49:41.474Z,9.63
2023-01-02T07:55:03.603Z,9.25
2023-01-02T08:00:25.636Z,9.36
2023-01-02T08:05:47.689Z,9.41
2023-01-02T08:11:12.731Z,9.68
2023-01-02T08:16:34.854Z,9.86
2023-01-02T08:21:56.749Z,10.18
2023-01-02T08:27:18.667Z,10.39
2023-01-02T08:32:40.673Z,10.55
2023-01-02T08:38:02.573Z,10.48
2023-01-02T08:43:25.263Z,10.53
2023-01-02T08:48:47.209Z,10.56
2023-01-02T08:54:09.159Z,11.37
2023-01-02T08:59:31.004Z,12.53
2023-01-02T09:04:52.905Z,12.13
2023-01-02T09:10:15.328Z,12.11
2023-01-02T09:15:37.215Z,11.97
2023-01-02T09:20:59.199Z,12.37
2023-01-02T09:26:21.527Z,14.20
2023-01-02T09:31:43.493Z,16.06
2023-01-02T09:37:05.373Z,16.62
2023-01-02T09:42:27.352Z,16.41
2023-01-02T09:47:50.761Z,17.06
2023-01-02T09:53:13.879Z,16.84
2023-01-02T09:58:35.773Z,17.57
2023-01-02T10:04:17.985Z,15.44
2023-01-02T10:10:18.056Z,15.10
2023-01-02T10:15:46.117Z,14.37
2023-01-02T10:21:23.336Z,13.95
2023-01-02T10:26:53.742Z,13.63
2023-01-02T10:32:21.535Z,13.49
2023-01-02T10:37:43.518Z,13.46
2023-01-02T10:43:05.448Z,13.23
2023-01-02T10:48:32.482Z,13.14
2023-01-02T10:54:05.966Z,13.03
2023-01-02T10:59:28.822Z,13.03
2023-01-02T11:04:51.775Z,13.01
2023-01-02T11:10:37.098Z,12.97
2023-01-02T11:16:02.118Z,12.91
2023-01-02T11:21:34.094Z,12.90
2023-01-02T11:26:56.244Z,13.05
2023-01-02T11:32:24.515Z,13.28
2023-01-02T11:37:52.630Z,13.46
2023-01-02T11:43:14.736Z,13.53
2023-01-02T11:48:37.036Z,13.55
2023-01-02T11:54:02.705Z,13.66
2023-01-02T11:59:32.043Z,13.68
2023-01-02T12:04:55.069Z,13.76
2023-01-02T12:10:28.023Z,13.71
2023-01-02T12:15:52.992Z,13.71
2023-01-02T12:21:35.062Z,13.73
2023-01-02T12:27:07.414Z,13.71
2023-01-02T12:32:41.463Z,13.67
2023-01-02T12:38:06.913Z,13.80
2023-01-02T12:43:34.771Z,13.98
2023-01-02T12:49:15.354Z,14.00
2023-01-02T12:55:18.933Z,13.94
2023-01-02T13:01:33.261Z,13.84
2023-01-02T13:07:03.518Z,13.74
2023-01-02T13:12:27.783Z,13.61
2023-01-02T13:17:49.588Z,13.70
2023-01-02T13:23:34.400Z,13.56
2023-01-02T13:28:59.086Z,13.63
2023-01-02T13:34:30.079Z,13.77
2023-01-02T13:39:57.938Z,13.62
2023-01-02T13:45:24.624Z,13.55
2023-01-02T13:50:46.793Z,13.53
2023-01-02T13:56:10.134Z,13.57
2023-01-02T14:02:02.421Z,13.58
2023-01-02T14:07:27.519Z,13.56
2023-01-02T14:13:02.558Z,13.55
2023-01-02T14:18:30.758Z,13.56
2023-01-02T14:24:16.985Z,13.61
2023-01-02T14:29:52.488Z,13.57
2023-01-02T14:35:15.227Z,13.60
2023-01-02T14:40:44.971Z,13.47
2023-01-02T14:46:23.147Z,13.21
2023-01-02T14:52:00.663Z,13.21
2023-01-02T14:57:31.236Z,13.13
2023-01-02T15:03:28.237Z,12.83
2023-01-02T15:08:53.111Z,12.67
2023-01-02T15:14:22.085Z,12.49
2023-01-02T15:19:47.311Z,12.47
2023-01-02T15:25:13.033Z,12.28
2023-01-02T15:30:37.163Z,12.06
2023-01-02T15:36:03.562Z,11.99
2023-01-02T15:41:25.533Z,11.85
2023-01-02T15:46:48.118Z,11.60
2023-01-02T15:52:25.116Z,11.48
2023-01-02T15:57:52.862Z,11.53
2023-01-02T16:04:02.419Z,11.46
2023-01-02T16:09:27.133Z,11.32
2023-01-02T16:14:52.969Z,11.25
2023-01-02T16:20:14.758Z,11.29
2023-01-02T16:25:44.575Z,11.32
2023-01-02T16:31:18.335Z,11.19
2023-01-02T16:36:40.422Z,11.19
2023-01-02T16:42:02.311Z,11.25
2023-01-02T16:47:29.732Z,11.30
2023-01-02T16:52:54.404Z,11.34
2023-01-02T16:58:16.279Z,11.36
2023-01-02T17:03:38.212Z,11.47
2023-01-02T17:09:00.112Z,11.44
2023-01-02T17:14:21.954Z,11.56
2023-01-02T17:19:43.772Z,11.62
2023-01-02T17:25:08.272Z,11.63
2023-01-02T17:30:30.082Z,11.61
2023-01-02T17:35:51.973Z,11.60
2023-01-02T17:41:13.948Z,11.56
2023-01-02T17:52:18.126Z,11.34
2023-01-02T17:57:41.304Z,11.35
2023-01-02T18:03:03.207Z,11.29
2023-01-02T18:08:25.148Z,11.29
2023-01-02T18:13:55.976Z,11.20
2023-01-02T18:19:23.436Z,11.19
2023-01-02T18:24:47.123Z,11.24
2023-01-02T18:30:22.540Z,11.17
2023-01-02T18:36:00.192Z,11.07
2023-01-02T18:41:23.516Z,11.05
2023-01-02T18:47:04.068Z,11.02
2023-01-02T18:52:29.904Z,10.98
2023-01-02T18:57:59.646Z,10.96
2023-01-02T19:03:26.520Z,10.84
2023-01-02T19:08:48.527Z,10.79
2023-01-02T19:14:22.018Z,10.81
2023-01-02T19:19:44.536Z,10.77
2023-01-02T19:25:18.788Z,10.72
2023-01-02T19:30:41.408Z,10.68
2023-01-02T19:36:05.061Z,10.71
2023-01-02T19:41:26.894Z,10.67
2023-01-02T19:46:48.735Z,10.61
2023-01-02T19:52:11.546Z,10.63
2023-01-02T19:57:34.439Z,10.54
2023-01-02T20:02:56.808Z,10.52
2023-01-02T20:08:18.812Z,10.53
2023-01-02T20:13:40.687Z,10.60
2023-01-02T20:19:02.581Z,10.48
2023-01-02T20:24:24.854Z,10.57
2023-01-02T20:29:50.389Z,10.60
2023-01-02T20:35:12.801Z,10.49
2023-01-02T20:40:34.881Z,10.56
2023-01-02T20:45:57.134Z,10.48
2023-01-02T20:51:19.056Z,10.65
2023-01-02T20:56:40.902Z,10.67
2023-01-02T21:02:02.858Z,10.70
2023-01-02T21:07:24.821Z,10.73
2023-01-02T21:12:46.721Z,10.76
2023-01-02T21:18:09.815Z,10.63
2023-01-02T21:23:33.800Z,10.72
2023-01-02T21:28:55.630Z,10.89
2023-01-02T21:34:17.745Z,11.18
2023-01-02T21:39:39.669Z,11.39
2023-01-02T21:45:02.082Z,11.52
2023-01-02T21:50:25.136Z,11.64
2023-01-02T21:55:46.963Z,11.78
2023-01-02T22:01:08.896Z,11.83
2023-01-02T22:06:30.839Z,11.97
2023-01-02T22:11:53.549Z,12.05
2023-01-02T22:17:15.419Z,12.03
2023-01-02T22:22:37.357Z,12.11
2023-01-02T22:27:59.332Z,12.12
2023-01-02T22:33:21.582Z,12.13
2023-01-02T22:39:02.266Z,12.07
2023-01-02T22:44:25.416Z,12.07
2023-01-02T22:49:48.958Z,11.99
2023-01-02T22:55:16.700Z,11.88
2023-01-02T23:00:38.981Z,11.91
2023-01-02T23:06:00.867Z,11.88
2023-01-02T23:11:23.167Z,11.89
2023-01-02T23:16:45.111Z,11.79
2023-01-02T23:22:06.971Z,11.83
2023-01-02T23:27:28.795Z,11.78
2023-01-02T23:32:50.643Z,11.80
2023-01-02T23:38:12.504Z,11.65
2023-01-02T23:43:34.374Z,11.76
2023-01-02T23:48:56.396Z,11.76
2023-01-02T23:54:18.704Z,11.83
2023-01-02T23:59:40.554Z,11.75
